createdAt,value
2018-08-22T00:00:18.631Z,65.43
2018-08-22T00:02:47.150Z,65.35
2018-08-22T00:05:15.595Z,65.50
2018-08-22T00:07:45.274Z,64.59
2018-08-22T00:10:13.801Z,65.06
2018-08-22T00:12:42.293Z,66.00
2018-08-22T00:15:12.575Z,65.44
2018-08-22T00:17:41.169Z,65.61
2018-08-22T00:20:10.895Z,66.40
2018-08-22T00:22:39.640Z,65.91
2018-08-22T00:25:08.732Z,66.34
2018-08-22T00:27:37.287Z,66.48
2018-08-22T00:30:06.522Z,66.27
2018-08-22T00:32:35.249Z,65.72
2018-08-22T00:35:04.254Z,65.80
2018-08-22T00:37:33.112Z,66.90
2018-08-22T00:40:01.668Z,67.17
2018-08-22T00:42:30.924Z,67.11
2018-08-22T00:44:59.520Z,67.38
2018-08-22T00:47:35.353Z,67.33
2018-08-22T00:50:05.191Z,67.34
2018-08-22T00:52:33.873Z,67.70
2018-08-22T00:55:02.582Z,67.87
2018-08-22T00:57:31.627Z,67.16
2018-08-22T01:00:00.545Z,67.75
2018-08-22T01:02:29.213Z,68.08
2018-08-22T01:04:58.013Z,67.37
2018-08-22T01:07:26.681Z,67.73
2018-08-22T01:09:55.255Z,67.70
2018-08-22T01:12:24.608Z,67.64
2018-08-22T01:14:53.120Z,68.07
2018-08-22T01:17:21.772Z,67.83
2018-08-22T01:19:50.290Z,68.13
2018-08-22T01:22:19.589Z,67.95
2018-08-22T01:24:48.071Z,68.53
2018-08-22T01:27:21.842Z,67.94
2018-08-22T01:29:52.006Z,68.95
2018-08-22T01:32:21.048Z,68.44
2018-08-22T01:34:49.905Z,68.59
2018-08-22T01:37:18.533Z,68.56
2018-08-22T01:39:47.941Z,68.54
2018-08-22T01:42:16.740Z,69.62
2018-08-22T01:44:45.896Z,69.57
2018-08-22T01:47:14.941Z,69.34
2018-08-22T01:49:43.600Z,69.48
2018-08-22T01:52:12.397Z,69.37
2018-08-22T01:54:41.076Z,69.28
2018-08-22T01:57:09.619Z,70.08
2018-08-22T01:59:38.115Z,69.56
2018-08-22T02:02:06.921Z,69.88
2018-08-22T02:04:35.561Z,69.53
2018-08-22T02:07:04.385Z,70.43
2018-08-22T02:09:32.897Z,70.51
2018-08-22T02:12:01.345Z,70.71
2018-08-22T02:14:29.992Z,70.27
2018-08-22T02:16:59.398Z,70.70
2018-08-22T02:19:28.776Z,70.26
2018-08-22T02:21:57.213Z,70.66
2018-08-22T02:24:25.789Z,70.21
2018-08-22T02:26:55.426Z,71.10
2018-08-22T02:29:23.858Z,71.12
2018-08-22T02:31:52.563Z,70.68
2018-08-22T02:34:21.143Z,70.79
2018-08-22T02:36:49.592Z,71.20
2018-08-22T02:39:18.137Z,71.34
2018-08-22T02:41:46.748Z,71.53
2018-08-22T02:44:15.385Z,70.72
2018-08-22T02:46:43.946Z,71.79
2018-08-22T02:49:14.432Z,71.73
2018-08-22T02:51:43.324Z,71.08
2018-08-22T02:54:11.959Z,71.43
2018-08-22T02:56:40.662Z,71.26
2018-08-22T02:59:09.592Z,71.12
2018-08-22T03:01:38.452Z,71.93
2018-08-22T03:04:07.112Z,71.12
2018-08-22T03:06:35.957Z,71.45
2018-08-22T03:09:06.142Z,71.12
2018-08-22T03:11:36.410Z,70.98
2018-08-22T03:14:05.169Z,71.82
2018-08-22T03:16:34.136Z,71.61
2018-08-22T03:19:02.623Z,71.56
2018-08-22T03:21:31.352Z,71.43
2018-08-22T03:24:00.039Z,71.07
2018-08-22T03:26:28.669Z,71.48
2018-08-22T03:28:57.513Z,71.76
2018-08-22T03:31:26.149Z,71.72
2018-08-22T03:33:54.749Z,71.19
2018-08-22T03:36:23.397Z,71.60
2018-08-22T03:38:51.888Z,71.25
2018-08-22T03:41:20.575Z,71.70
2018-08-22T03:43:49.441Z,71.73
2018-08-22T03:46:18.341Z,71.83
2018-08-22T03:48:46.858Z,71.11
2018-08-22T03:51:15.626Z,71.34
2018-08-22T03:53:44.178Z,71.77
2018-08-22T03:56:12.655Z,71.88
2018-08-22T03:58:42.217Z,71.20
2018-08-22T04:01:10.893Z,71.44
2018-08-22T04:03:39.412Z,72.20
2018-08-22T04:06:08.360Z,72.17
2018-08-22T04:08:37.512Z,72.12
2018-08-22T04:11:06.264Z,71.88
2018-08-22T04:13:34.867Z,71.99
2018-08-22T04:16:03.697Z,72.33
2018-08-22T04:18:32.500Z,71.99
2018-08-22T04:21:01.445Z,72.74
2018-08-22T04:23:30.582Z,72.19
2018-08-22T04:25:59.389Z,72.08
2018-08-22T04:28:34.970Z,72.38
2018-08-22T04:31:03.883Z,72.65
2018-08-22T04:33:32.732Z,72.83
2018-08-22T04:36:02.447Z,73.34
2018-08-22T04:38:31.242Z,72.89
2018-08-22T04:41:00.660Z,72.73
2018-08-22T04:43:29.566Z,72.98
2018-08-22T04:45:58.616Z,73.70
2018-08-22T04:48:28.440Z,72.70
2018-08-22T04:50:59.130Z,73.39
2018-08-22T04:53:33.123Z,72.80
2018-08-22T04:56:02.556Z,73.49
2018-08-22T04:58:31.172Z,73.31
2018-08-22T05:01:00.168Z,73.85
2018-08-22T05:03:29.566Z,73.58
2018-08-22T05:05:58.376Z,72.93
2018-08-22T05:08:27.162Z,73.17
2018-08-22T05:10:56.101Z,72.50
2018-08-22T05:13:24.910Z,72.76
2018-08-22T05:15:53.712Z,72.39
2018-08-22T05:18:22.873Z,72.37
2018-08-22T05:20:51.639Z,72.62
2018-08-22T05:23:20.845Z,71.95
2018-08-22T05:25:49.466Z,72.06
2018-08-22T05:28:24.762Z,72.35
2018-08-22T05:30:53.573Z,72.46
2018-08-22T05:33:22.595Z,71.39
2018-08-22T05:35:51.572Z,71.82
2018-08-22T05:38:20.304Z,71.42
2018-08-22T05:40:49.211Z,72.12
2018-08-22T05:43:19.055Z,71.44
2018-08-22T05:45:47.714Z,71.41
2018-08-22T05:48:17.198Z,71.50
2018-08-22T05:50:46.170Z,71.55
2018-08-22T05:53:15.091Z,70.97
2018-08-22T05:55:44.023Z,71.48
2018-08-22T05:58:12.716Z,71.86
2018-08-22T06:00:41.823Z,71.99
2018-08-22T06:03:11.414Z,71.75
2018-08-22T06:05:40.064Z,71.71
2018-08-22T06:08:09.565Z,71.20
2018-08-22T06:10:38.174Z,71.85
2018-08-22T06:13:07.754Z,71.22
2018-08-22T06:15:36.906Z,71.96
2018-08-22T06:18:05.779Z,71.09
2018-08-22T06:20:34.507Z,71.17
2018-08-22T06:23:03.274Z,70.54
2018-08-22T06:25:32.147Z,71.54
2018-08-22T06:28:00.718Z,71.78
2018-08-22T06:30:29.978Z,70.77
2018-08-22T06:32:58.757Z,71.47
2018-08-22T06:35:27.587Z,70.73
2018-08-22T06:37:56.332Z,70.89
2018-08-22T06:40:26.117Z,71.57
2018-08-22T06:42:54.970Z,70.84
2018-08-22T06:45:23.841Z,69.94
2018-08-22T06:47:52.776Z,70.17
2018-08-22T06:50:21.511Z,69.97
2018-08-22T06:55:26.984Z,70.65
2018-08-22T07:00:23.895Z,70.55
2018-08-22T07:02:52.605Z,69.65
2018-08-22T07:05:21.802Z,70.15
2018-08-22T07:07:50.539Z,69.89
2018-08-22T07:10:19.096Z,69.81
2018-08-22T07:12:48.551Z,70.37
2018-08-22T07:15:17.888Z,70.15
2018-08-22T07:17:46.640Z,69.57
2018-08-22T07:20:15.271Z,70.13
2018-08-22T07:22:43.961Z,69.17
2018-08-22T07:25:12.621Z,69.25
2018-08-22T07:27:41.559Z,69.42
2018-08-22T07:30:10.696Z,68.29
2018-08-22T07:32:40.096Z,68.32
2018-08-22T07:35:08.831Z,68.32
2018-08-22T07:37:37.549Z,68.80
2018-08-22T07:40:07.054Z,68.92
2018-08-22T07:42:35.777Z,68.39
2018-08-22T07:45:05.047Z,69.09
2018-08-22T07:47:33.922Z,68.14
2018-08-22T07:50:05.976Z,68.26
2018-08-22T07:52:35.218Z,69.13
2018-08-22T07:55:04.060Z,69.11
2018-08-22T07:57:32.794Z,67.62
2018-08-22T08:00:01.597Z,68.56
2018-08-22T08:02:31.220Z,67.35
2018-08-22T08:05:00.237Z,66.98
2018-08-22T08:07:29.759Z,66.56
2018-08-22T08:09:58.580Z,66.97
2018-08-22T08:12:32.259Z,66.77
2018-08-22T08:15:04.018Z,67.39
2018-08-22T08:17:33.185Z,66.36
2018-08-22T08:20:02.826Z,66.62
2018-08-22T08:22:32.313Z,66.06
2018-08-22T08:25:01.210Z,65.37
2018-08-22T08:27:30.732Z,65.82
2018-08-22T08:30:01.090Z,66.00
2018-08-22T08:32:30.442Z,66.41
2018-08-22T08:34:59.297Z,66.20
2018-08-22T08:37:28.251Z,66.88
2018-08-22T08:39:58.110Z,66.83
2018-08-22T08:42:27.525Z,67.34
2018-08-22T08:44:56.843Z,66.40
2018-08-22T08:47:26.799Z,66.15
2018-08-22T08:49:56.018Z,65.86
2018-08-22T08:52:25.080Z,66.33
2018-08-22T08:54:54.192Z,66.01
2018-08-22T08:57:23.124Z,66.22
2018-08-22T08:59:52.115Z,65.69
2018-08-22T09:02:20.990Z,65.62
2018-08-22T09:04:50.135Z,64.98
2018-08-22T09:07:18.725Z,65.31
2018-08-22T09:09:47.767Z,63.78
2018-08-22T09:12:16.550Z,63.46
2018-08-22T09:14:45.558Z,62.90
2018-08-22T09:17:14.409Z,62.75
2018-08-22T09:19:43.445Z,63.61
2018-08-22T09:22:12.169Z,63.57
2018-08-22T09:24:42.193Z,62.98
2018-08-22T09:27:11.351Z,62.89
2018-08-22T09:29:41.104Z,62.96
2018-08-22T09:32:09.792Z,61.15
2018-08-22T09:34:39.028Z,61.67
2018-08-22T09:37:07.936Z,61.76
2018-08-22T09:39:36.707Z,60.79
2018-08-22T09:42:05.694Z,59.14
2018-08-22T09:44:34.904Z,58.77
2018-08-22T09:47:05.421Z,59.04
2018-08-22T09:49:35.499Z,59.68
2018-08-22T09:52:05.080Z,58.96
2018-08-22T09:54:38.995Z,59.52
2018-08-22T09:57:08.806Z,58.76
2018-08-22T09:59:37.640Z,57.63
2018-08-22T10:02:07.111Z,58.42
2018-08-22T10:04:36.360Z,56.23
2018-08-22T10:07:05.518Z,55.96
2018-08-22T10:09:34.962Z,56.18
2018-08-22T10:12:04.303Z,55.28
2018-08-22T10:14:33.939Z,55.84
2018-08-22T10:17:02.713Z,55.65
2018-08-22T10:19:32.148Z,56.67
2018-08-22T10:22:01.160Z,55.47
2018-08-22T10:24:30.153Z,54.81
2018-08-22T10:26:59.109Z,53.83
2018-08-22T10:29:28.033Z,54.85
2018-08-22T10:31:57.024Z,53.54
2018-08-22T10:34:26.641Z,53.19
2018-08-22T10:36:56.136Z,51.24
2018-08-22T10:39:24.730Z,52.78
2018-08-22T10:41:53.408Z,53.33
2018-08-22T10:44:22.780Z,52.34
2018-08-22T10:46:52.280Z,52.79
2018-08-22T10:49:20.964Z,52.15
2018-08-22T10:51:49.947Z,52.44
2018-08-22T10:54:18.988Z,52.59
2018-08-22T10:56:47.996Z,51.58
2018-08-22T10:59:17.409Z,51.29
2018-08-22T11:01:46.245Z,49.43
2018-08-22T11:04:15.205Z,49.02
2018-08-22T11:06:44.014Z,48.64
2018-08-22T11:09:12.849Z,48.23
2018-08-22T11:11:41.731Z,50.12
2018-08-22T11:14:10.693Z,48.93
2018-08-22T11:16:40.038Z,49.14
2018-08-22T11:19:08.976Z,47.65
2018-08-22T11:21:49.069Z,46.56
2018-08-22T11:44:19.226Z,45.72
2018-08-22T11:46:48.132Z,46.11
2018-08-22T11:49:16.802Z,44.93
2018-08-22T11:51:45.542Z,45.20
2018-08-22T11:54:14.346Z,45.51
2018-08-22T11:56:43.223Z,45.29
2018-08-22T11:59:12.267Z,45.00
2018-08-22T12:01:40.939Z,43.39
2018-08-22T12:04:10.127Z,45.34
2018-08-22T12:06:40.207Z,45.08
2018-08-22T12:09:11.015Z,44.69
2018-08-22T12:11:40.072Z,43.10
2018-08-22T12:14:09.402Z,42.06
2018-08-22T12:16:39.794Z,42.28
2018-08-22T12:19:09.012Z,43.23
2018-08-22T12:21:38.338Z,42.53
2018-08-22T12:24:07.528Z,41.52
2018-08-22T12:26:36.366Z,42.90
2018-08-22T12:29:05.520Z,41.82
2018-08-22T12:31:34.771Z,42.10
2018-08-22T12:34:03.519Z,41.34
2018-08-22T12:36:32.622Z,42.82
2018-08-22T12:39:01.446Z,42.31
2018-08-22T12:41:30.292Z,42.48
2018-08-22T12:43:59.300Z,44.02
2018-08-22T12:46:28.715Z,42.93
2018-08-22T12:48:57.533Z,42.22
2018-08-22T12:51:26.501Z,43.43
2018-08-22T12:53:55.375Z,42.97
2018-08-22T12:56:25.238Z,41.85
2018-08-22T12:58:54.211Z,43.03
2018-08-22T13:01:22.830Z,42.15
2018-08-22T13:03:52.060Z,40.57
2018-08-22T13:06:20.915Z,39.11
2018-08-22T13:08:49.907Z,39.71
2018-08-22T13:11:18.628Z,39.84
2018-08-22T13:13:47.490Z,38.78
2018-08-22T13:16:16.319Z,39.81
2018-08-22T13:18:45.171Z,40.85
2018-08-22T13:21:14.127Z,40.67
2018-08-22T13:23:50.023Z,39.77
2018-08-22T13:26:18.997Z,39.75
2018-08-22T13:28:48.973Z,39.71
2018-08-22T13:31:18.446Z,40.72
2018-08-22T13:33:47.205Z,41.38
2018-08-22T13:36:16.513Z,42.69
2018-08-22T13:38:45.492Z,41.49
2018-08-22T13:41:14.440Z,41.61
2018-08-22T13:43:43.611Z,42.73
2018-08-22T13:46:12.548Z,41.48
2018-08-22T13:48:41.643Z,41.16
2018-08-22T13:51:10.218Z,41.22
2018-08-22T13:53:39.287Z,41.60
2018-08-22T13:56:08.080Z,40.13
2018-08-22T13:58:37.025Z,41.08
2018-08-22T14:01:06.617Z,41.77
2018-08-22T14:03:35.305Z,42.28
2018-08-22T14:06:04.916Z,42.78
2018-08-22T14:08:33.798Z,41.46
2018-08-22T14:11:02.849Z,40.90
2018-08-22T14:13:32.337Z,41.92
2018-08-22T14:16:01.218Z,40.90
2018-08-22T14:18:30.079Z,41.30
2018-08-22T14:20:58.828Z,42.07
2018-08-22T14:23:27.447Z,40.50
2018-08-22T14:25:56.214Z,42.41
2018-08-22T14:28:25.169Z,41.64
2018-08-22T14:30:53.897Z,40.84
2018-08-22T14:33:22.530Z,41.90
2018-08-22T14:35:51.376Z,41.49
2018-08-22T14:38:21.089Z,41.40
2018-08-22T14:40:49.722Z,41.29
2018-08-22T14:43:18.894Z,40.93
2018-08-22T14:45:48.343Z,41.67
2018-08-22T14:48:17.061Z,40.96
2018-08-22T14:50:46.152Z,42.57
2018-08-22T14:53:15.113Z,41.83
2018-08-22T14:55:44.353Z,43.50
2018-08-22T14:58:13.325Z,43.08
2018-08-22T15:00:41.934Z,42.67
2018-08-22T15:03:11.420Z,43.44
2018-08-22T15:05:39.908Z,43.85
2018-08-22T15:08:08.591Z,43.40
2018-08-22T15:10:37.305Z,42.64
2018-08-22T15:13:06.437Z,42.00
2018-08-22T15:15:35.510Z,42.33
2018-08-22T15:18:04.322Z,42.47
2018-08-22T15:20:33.048Z,43.34
2018-08-22T15:23:01.617Z,43.54
2018-08-22T15:25:30.574Z,43.11
2018-08-22T15:27:59.153Z,42.02
2018-08-22T15:30:27.807Z,43.22
2018-08-22T15:32:56.670Z,41.32
2018-08-22T15:35:25.660Z,42.35
2018-08-22T15:37:55.532Z,42.26
2018-08-22T15:40:25.029Z,41.88
2018-08-22T15:42:53.795Z,41.86
2018-08-22T15:45:22.537Z,42.26
2018-08-22T15:47:51.969Z,41.75
2018-08-22T15:50:20.775Z,41.78
2018-08-22T15:52:49.877Z,41.80
2018-08-22T15:55:19.034Z,41.87
2018-08-22T15:58:01.068Z,43.35
2018-08-22T16:00:33.321Z,43.05
2018-08-22T16:03:03.471Z,42.67
2018-08-22T16:05:32.965Z,42.86
2018-08-22T16:08:01.651Z,42.34
2018-08-22T16:10:30.868Z,42.64
2018-08-22T16:13:00.403Z,42.73
2018-08-22T16:15:32.759Z,42.81
2018-08-22T16:18:04.937Z,42.51
2018-08-22T16:20:36.025Z,42.75
2018-08-22T16:23:04.650Z,44.24
2018-08-22T16:25:40.382Z,44.27
2018-08-22T16:28:09.113Z,44.97
2018-08-22T16:30:37.770Z,44.99
2018-08-22T16:33:06.363Z,44.58
2018-08-22T16:35:35.384Z,45.42
2018-08-22T16:38:07.128Z,46.45
2018-08-22T16:40:37.607Z,45.50
2018-08-22T16:43:07.045Z,46.75
2018-08-22T16:45:44.199Z,45.86
2018-08-22T16:48:15.834Z,46.18
2018-08-22T16:50:44.794Z,46.79
2018-08-22T16:53:18.881Z,46.59
2018-08-22T16:55:48.855Z,46.36
2018-08-22T16:58:18.245Z,46.82
2018-08-22T17:00:47.934Z,47.77
2018-08-22T17:03:16.747Z,47.10
2018-08-22T17:05:45.508Z,47.23
2018-08-22T17:08:14.851Z,47.13
2018-08-22T17:10:59.860Z,47.26
2018-08-22T17:13:36.468Z,48.51
2018-08-22T17:16:05.460Z,47.43
2018-08-22T17:18:34.300Z,48.42
2018-08-22T17:21:04.029Z,48.38
2018-08-22T17:23:32.971Z,48.61
2018-08-22T17:26:01.789Z,48.33
2018-08-22T17:28:35.621Z,47.34
2018-08-22T17:31:04.717Z,48.35
2018-08-22T17:33:39.409Z,48.58
2018-08-22T17:36:09.305Z,48.43
2018-08-22T17:38:38.505Z,48.22
2018-08-22T17:41:07.727Z,48.62
2018-08-22T17:43:52.965Z,48.72
2018-08-22T17:46:23.222Z,49.12
2018-08-22T17:48:51.930Z,49.16
2018-08-22T17:51:20.682Z,50.13
2018-08-22T17:53:50.214Z,50.01
2018-08-22T17:56:22.091Z,49.51
2018-08-22T17:58:52.346Z,49.62
2018-08-22T18:01:24.166Z,49.49
2018-08-22T18:03:56.133Z,50.97
2018-08-22T18:06:24.941Z,51.08
2018-08-22T18:08:54.166Z,51.09
2018-08-22T18:11:25.754Z,50.35
2018-08-22T18:13:57.246Z,51.37
2018-08-22T18:16:25.796Z,50.52
2018-08-22T18:18:54.794Z,51.94
2018-08-22T18:21:24.619Z,51.54
2018-08-22T18:23:56.740Z,51.47
2018-08-22T18:26:26.152Z,52.04
2018-08-22T18:28:55.703Z,52.02
2018-08-22T18:31:30.981Z,52.05
2018-08-22T18:34:06.444Z,52.35
2018-08-22T18:36:35.412Z,52.54
2018-08-22T18:39:11.499Z,53.34
2018-08-22T18:41:40.672Z,53.60
2018-08-22T18:44:09.474Z,54.08
2018-08-22T18:46:38.844Z,53.67
2018-08-22T18:49:08.303Z,53.39
2018-08-22T18:51:37.284Z,54.67
2018-08-22T18:54:06.074Z,54.88
2018-08-22T18:56:34.940Z,54.35
2018-08-22T18:59:37.472Z,54.97
2018-08-22T19:02:09.312Z,55.60
2018-08-22T19:04:38.938Z,55.97
2018-08-22T19:07:11.918Z,55.77
2018-08-22T19:09:40.890Z,56.53
2018-08-22T19:12:10.242Z,56.70
2018-08-22T19:14:45.393Z,56.88
2018-08-22T19:17:16.195Z,56.47
2018-08-22T19:19:47.324Z,57.39
2018-08-22T19:22:17.545Z,57.22
2018-08-22T19:25:02.907Z,57.01
2018-08-22T19:27:32.888Z,57.70
2018-08-22T19:30:02.720Z,57.34
2018-08-22T19:32:31.795Z,58.48
2018-08-22T19:35:00.493Z,58.93
2018-08-22T19:37:29.437Z,58.53
2018-08-22T19:40:07.753Z,59.57
2018-08-22T19:42:37.932Z,58.75
2018-08-22T19:45:14.201Z,59.29
2018-08-22T19:47:43.632Z,59.29
2018-08-22T19:50:13.611Z,59.45
2018-08-22T19:52:42.589Z,60.12
2018-08-22T19:55:11.341Z,60.19
2018-08-22T19:57:41.885Z,61.33
2018-08-22T20:00:12.011Z,61.48
2018-08-22T20:02:40.757Z,61.79
2018-08-22T20:05:10.676Z,61.85
2018-08-22T20:07:39.852Z,62.74
2018-08-22T20:10:09.449Z,62.27
2018-08-22T20:12:45.352Z,63.55
2018-08-22T20:15:14.353Z,63.16
2018-08-22T20:17:48.052Z,62.84
2018-08-22T20:20:17.068Z,63.07
2018-08-22T20:22:47.358Z,63.79
2018-08-22T20:25:16.336Z,63.88
2018-08-22T20:27:45.012Z,64.16
2018-08-22T20:30:18.228Z,65.03
2018-08-22T20:32:59.782Z,64.95
2018-08-22T20:35:35.907Z,64.37
2018-08-22T20:38:08.740Z,64.96
2018-08-22T20:40:41.514Z,65.32
2018-08-22T20:43:17.507Z,65.75
2018-08-22T20:45:47.324Z,65.17
2018-08-22T20:48:19.180Z,65.24
2018-08-22T20:50:49.074Z,65.53
2018-08-22T20:53:19.046Z,65.48
2018-08-22T20:55:48.322Z,66.04
2018-08-22T20:58:31.738Z,65.33
2018-08-22T21:01:01.417Z,65.41
2018-08-22T21:03:30.586Z,65.32
2018-08-22T21:05:59.409Z,66.03
2018-08-22T21:10:56.767Z,65.56
2018-08-22T21:13:28.025Z,65.42
2018-08-22T21:15:57.596Z,66.25
2018-08-22T21:18:26.514Z,65.92
2018-08-22T21:21:00.087Z,66.21
2018-08-22T21:23:29.210Z,66.22
2018-08-22T21:25:58.535Z,66.79
2018-08-22T21:28:32.745Z,67.38
2018-08-22T21:31:06.998Z,67.59
2018-08-22T21:33:36.038Z,66.96
2018-08-22T21:36:04.741Z,66.99
2018-08-22T21:38:33.666Z,67.51
2018-08-22T21:41:02.600Z,67.71
2018-08-22T21:43:31.626Z,67.83
2018-08-22T21:46:00.822Z,68.78
2018-08-22T21:48:30.329Z,67.86
2018-08-22T21:51:05.596Z,68.60
2018-08-22T21:53:34.151Z,68.96
2018-08-22T21:56:02.679Z,69.00
2018-08-22T21:58:31.942Z,68.74
2018-08-22T22:01:00.946Z,68.49
2018-08-22T22:03:32.733Z,69.14
2018-08-22T22:06:05.804Z,69.07
2018-08-22T22:08:35.053Z,68.62
2018-08-22T22:11:07.156Z,68.87
2018-08-22T22:13:35.760Z,69.10
2018-08-22T22:16:05.563Z,68.57
2018-08-22T22:18:40.401Z,68.57
2018-08-22T22:21:13.200Z,68.44
2018-08-22T22:23:44.753Z,69.07
2018-08-22T22:26:14.868Z,69.38
2018-08-22T22:28:43.548Z,68.90
2018-08-22T22:31:14.100Z,69.72
2018-08-22T22:33:47.560Z,69.05
2018-08-22T22:36:17.097Z,70.12
2018-08-22T22:38:45.624Z,69.93
2018-08-22T22:41:14.190Z,69.84
2018-08-22T22:43:42.711Z,69.29
2018-08-22T22:46:11.880Z,70.28
2018-08-22T22:48:41.867Z,69.57
2018-08-22T22:51:11.035Z,70.09
2018-08-22T22:53:39.822Z,70.76
2018-08-22T22:56:08.615Z,70.66
2018-08-22T22:58:37.745Z,69.92
2018-08-22T23:01:07.232Z,69.91
2018-08-22T23:03:37.041Z,70.63
2018-08-22T23:06:05.704Z,70.30
2018-08-22T23:08:35.473Z,70.13
2018-08-22T23:11:03.986Z,70.50
2018-08-22T23:13:32.506Z,70.70
2018-08-22T23:16:01.513Z,71.53
2018-08-22T23:18:30.280Z,71.51
2018-08-22T23:21:00.184Z,71.33
2018-08-22T23:23:37.055Z,72.09
2018-08-22T23:26:13.640Z,71.58
2018-08-22T23:28:48.824Z,72.32
2018-08-22T23:31:19.900Z,71.99
2018-08-22T23:33:48.756Z,71.61
2018-08-22T23:36:17.382Z,71.93
2018-08-22T23:38:48.523Z,72.10
2018-08-22T23:41:19.962Z,71.51
2018-08-22T23:43:51.622Z,72.17
2018-08-22T23:46:20.229Z,71.90
2018-08-22T23:48:56.076Z,72.13
2018-08-22T23:51:24.834Z,72.52
2018-08-22T23:53:57.095Z,71.76
2018-08-22T23:56:28.740Z,72.31
2018-08-22T23:58:58.553Z,72.89
